createdAt,value
2016-04-22T00:00:00.285Z,72.89
2016-04-22T00:00:10.285Z,72.89
2016-04-22T00:00:20.304Z,72.7
2016-04-22T00:00:30.304Z,72.7
2016-04-22T00:00:40.304Z,73.27
2016-04-22T00:00:50.319Z,72.89
2016-04-22T00:01:00.319Z,72.89
2016-04-22T00:01:10.319Z,72.99
2016-04-22T00:01:20.322Z,73.27
2016-04-22T00:01:29.572Z,73.36
2016-04-22T00:01:40.338Z,72.89
2016-04-22T00:01:50.353Z,73.36
2016-04-22T00:02:00.353Z,72.79
2016-04-22T00:02:10.353Z,73.08
2016-04-22T00:02:20.356Z,73.36
2016-04-22T00:02:30.356Z,72.79
2016-04-22T00:02:40.356Z,73.08
2016-04-22T00:02:50.372Z,73.27
2016-04-22T00:03:00.372Z,73.08
2016-04-22T00:03:10.388Z,72.99
2016-04-22T00:03:20.374Z,73.08
2016-04-22T00:03:30.405Z,73.36
2016-04-22T00:03:40.395Z,73.08
2016-04-22T00:03:50.395Z,72.99
2016-04-22T00:04:00.415Z,73.74
2016-04-22T00:04:10.400Z,73.08
2016-04-22T00:04:20.417Z,73.08
2016-04-22T00:04:30.417Z,73.46
2016-04-22T00:04:40.417Z,73.36
2016-04-22T00:04:50.417Z,73.36
2016-04-22T00:05:00.433Z,73.55
2016-04-22T00:05:10.448Z,73.27
2016-04-22T00:05:20.451Z,72.89
2016-04-22T00:05:30.451Z,72.79
2016-04-22T00:05:40.451Z,73.08
2016-04-22T00:05:50.467Z,73.08
2016-04-22T00:06:00.467Z,73.08
2016-04-22T00:06:10.483Z,73.08
2016-04-22T00:06:20.470Z,73.08
2016-04-22T00:06:30.470Z,73.27
2016-04-22T00:06:40.470Z,73.18
2016-04-22T00:06:50.486Z,73.27
2016-04-22T00:07:00.486Z,73.18
2016-04-22T00:07:10.486Z,73.27
2016-04-22T00:07:20.504Z,73.27
2016-04-22T00:07:30.504Z,73.18
2016-04-22T00:07:40.504Z,73.27
2016-04-22T00:07:50.520Z,73.18
2016-04-22T00:08:00.504Z,73.08
2016-04-22T00:08:10.520Z,73.18
2016-04-22T00:08:20.522Z,73.36
2016-04-22T00:08:30.522Z,73.46
2016-04-22T00:08:40.538Z,73.18
2016-04-22T00:08:50.553Z,73.18
2016-04-22T00:09:00.538Z,73.08
2016-04-22T00:09:10.553Z,73.46
2016-04-22T00:09:20.556Z,73.18
2016-04-22T00:09:30.556Z,73.18
2016-04-22T00:09:40.556Z,73.18
2016-04-22T00:09:50.556Z,73.27
2016-04-22T00:10:00.572Z,73.27
2016-04-22T00:10:10.572Z,73.18
2016-04-22T00:10:20.575Z,73.36
2016-04-22T00:10:30.590Z,73.55
2016-04-22T00:10:40.590Z,73.27
2016-04-22T00:10:50.590Z,73.27
2016-04-22T00:11:00.590Z,73.46
2016-04-22T00:11:10.590Z,73.36
2016-04-22T00:11:20.452Z,73.36
2016-04-22T00:11:30.608Z,73.27
2016-04-22T00:11:40.608Z,73.36
2016-04-22T00:11:50.452Z,73.27
2016-04-22T00:12:00.624Z,73.46
2016-04-22T00:12:10.624Z,73.46
2016-04-22T00:12:20.470Z,73.36
2016-04-22T00:12:30.642Z,73.27
2016-04-22T00:12:40.642Z,73.27
2016-04-22T00:12:50.658Z,73.27
2016-04-22T00:13:00.642Z,73.27
2016-04-22T00:13:10.674Z,73.27
2016-04-22T00:13:20.661Z,73.27
2016-04-22T00:13:30.661Z,73.55
2016-04-22T00:13:40.661Z,73.36
2016-04-22T00:13:50.661Z,73.46
2016-04-22T00:14:00.677Z,73.46
2016-04-22T00:14:10.677Z,73.36
2016-04-22T00:14:20.680Z,73.46
2016-04-22T00:14:30.680Z,73.46
2016-04-22T00:14:40.695Z,73.27
2016-04-22T00:14:50.695Z,73.36
2016-04-22T00:15:00.695Z,73.46
2016-04-22T00:15:10.711Z,73.27
2016-04-22T00:15:20.713Z,73.46
2016-04-22T00:15:30.713Z,73.55
2016-04-22T00:15:40.713Z,73.46
2016-04-22T00:15:50.728Z,73.18
2016-04-22T00:16:00.728Z,73.46
2016-04-22T00:16:10.728Z,73.74
2016-04-22T00:16:20.747Z,73.55
2016-04-22T00:16:30.747Z,73.65
2016-04-22T00:16:40.747Z,73.36
2016-04-22T00:16:50.747Z,73.27
2016-04-22T00:17:00.763Z,73.65
2016-04-22T00:17:10.763Z,73.74
2016-04-22T00:17:20.765Z,73.65
2016-04-22T00:17:30.608Z,73.27
2016-04-22T00:17:40.765Z,73.65
2016-04-22T00:17:50.780Z,73.65
2016-04-22T00:18:00.780Z,73.93
2016-04-22T00:18:10.796Z,73.55
2016-04-22T00:18:20.800Z,73.27
2016-04-22T00:18:30.800Z,73.55
2016-04-22T00:18:40.800Z,74.03
2016-04-22T00:18:50.909Z,74.03
2016-04-22T00:19:00.816Z,73.84
2016-04-22T00:19:10.816Z,74.03
2016-04-22T00:19:20.818Z,73.74
2016-04-22T00:19:30.818Z,73.84
2016-04-22T00:19:40.833Z,73.93
2016-04-22T00:19:50.849Z,73.93
2016-04-22T00:20:00.927Z,73.74
2016-04-22T00:20:10.849Z,74.12
2016-04-22T00:20:20.852Z,73.93
2016-04-22T00:20:30.852Z,73.74
2016-04-22T00:20:40.852Z,73.74
2016-04-22T00:20:50.867Z,73.84
2016-04-22T00:21:00.867Z,73.93
2016-04-22T00:21:10.867Z,73.84
2016-04-22T00:21:20.119Z,73.93
2016-04-22T00:21:30.885Z,73.8
2016-04-22T00:21:40.885Z,74.03
2016-04-22T00:21:50.885Z,73.74
2016-04-22T00:22:00.901Z,74.03
2016-04-22T00:22:10.901Z,73.93
2016-04-22T00:22:20.904Z,74.03
2016-04-22T00:22:30.904Z,73.99
2016-04-22T00:22:40.904Z,74.03
2016-04-22T00:22:50.919Z,73.9
2016-04-22T00:23:00.919Z,74.27
2016-04-22T00:23:10.935Z,74.27
2016-04-22T00:23:20.938Z,73.9
2016-04-22T00:23:30.938Z,74.37
2016-04-22T00:23:40.938Z,74.08
2016-04-22T00:23:50.938Z,74.08
2016-04-22T00:24:00.954Z,74.18
2016-04-22T00:24:10.954Z,74.18
2016-04-22T00:24:20.957Z,74.22
2016-04-22T00:24:30.957Z,74.12
2016-04-22T00:24:40.972Z,74.03
2016-04-22T00:24:50.972Z,73.71
2016-04-22T00:25:00.988Z,73.99
2016-04-22T00:25:10.988Z,74.08
2016-04-22T00:25:20.990Z,74.18
2016-04-22T00:25:30.990Z,73.9
2016-04-22T00:25:40.990Z,74.08
2016-04-22T00:25:50.990Z,74.03
2016-04-22T00:26:01.005Z,73.8
2016-04-22T00:26:11.005Z,74.18
2016-04-22T00:26:21.008Z,73.8
2016-04-22T00:26:31.024Z,74.08
2016-04-22T00:26:41.024Z,74.31
2016-04-22T00:26:51.040Z,74.18
2016-04-22T00:27:01.040Z,73.99
2016-04-22T00:27:11.040Z,74.22
2016-04-22T00:27:21.043Z,74.18
2016-04-22T00:27:31.043Z,74.03
2016-04-22T00:27:40.902Z,73.99
2016-04-22T00:27:51.058Z,73.99
2016-04-22T00:28:01.058Z,73.99
2016-04-22T00:28:11.074Z,74.31
2016-04-22T00:28:21.076Z,73.9
2016-04-22T00:28:31.076Z,74.18
2016-04-22T00:28:41.076Z,74.18
2016-04-22T00:28:51.076Z,73.9
2016-04-22T00:29:01.076Z,74.41
2016-04-22T00:29:11.092Z,74.66
2016-04-22T00:29:21.110Z,74.56
2016-04-22T00:29:31.095Z,74.56
2016-04-22T00:29:41.110Z,74.66
2016-04-22T00:29:51.110Z,74.69
2016-04-22T00:30:01.126Z,74.51
2016-04-22T00:30:11.110Z,74.47
2016-04-22T00:30:21.129Z,74.6
2016-04-22T00:30:31.129Z,74.47
2016-04-22T00:30:41.129Z,74.47
2016-04-22T00:30:51.144Z,74.66
2016-04-22T00:31:01.144Z,74.66
2016-04-22T00:31:11.144Z,74.47
2016-04-22T00:31:21.147Z,74.47
2016-04-22T00:31:31.163Z,74.47
2016-04-22T00:31:41.179Z,74.47
2016-04-22T00:31:51.163Z,74.47
2016-04-22T00:32:01.163Z,74.47
2016-04-22T00:32:11.179Z,74.66
2016-04-22T00:32:21.181Z,74.47
2016-04-22T00:32:31.181Z,74.18
2016-04-22T00:32:41.196Z,74.37
2016-04-22T00:32:51.196Z,74.37
2016-04-22T00:33:01.196Z,74.37
2016-04-22T00:33:11.196Z,74.18
2016-04-22T00:33:21.199Z,74.37
2016-04-22T00:33:31.231Z,74.37
2016-04-22T00:33:41.215Z,74.37
2016-04-22T00:33:51.215Z,74.37
2016-04-22T00:34:01.231Z,74.37
2016-04-22T00:34:11.246Z,74.37
2016-04-22T00:34:21.233Z,74.27
2016-04-22T00:34:31.233Z,74.18
2016-04-22T00:34:41.264Z,74.37
2016-04-22T00:34:51.248Z,74.27
2016-04-22T00:35:01.248Z,74.27
2016-04-22T00:35:11.248Z,74.85
2016-04-22T00:35:21.267Z,74.47
2016-04-22T00:35:31.267Z,74.85
2016-04-22T00:35:41.268Z,74.66
2016-04-22T00:35:51.268Z,74.75
2016-04-22T00:36:01.268Z,74.94
2016-04-22T00:36:11.283Z,74.85
2016-04-22T00:36:21.286Z,74.94
2016-04-22T00:36:31.286Z,75.04
2016-04-22T00:36:41.302Z,74.75
2016-04-22T00:36:51.302Z,74.94
2016-04-22T00:37:01.302Z,74.85
2016-04-22T00:37:11.302Z,74.75
2016-04-22T00:37:21.321Z,74.85
2016-04-22T00:37:31.321Z,74.75
2016-04-22T00:37:41.321Z,74.66
2016-04-22T00:37:51.321Z,74.66
2016-04-22T00:38:01.336Z,74.66
2016-04-22T00:38:11.336Z,74.75
2016-04-22T00:38:21.339Z,74.85
2016-04-22T00:38:31.355Z,74.56
2016-04-22T00:38:41.355Z,74.75
2016-04-22T00:38:51.355Z,74.85
2016-04-22T00:39:01.370Z,75.04
2016-04-22T00:39:11.355Z,74.37
2016-04-22T00:39:21.372Z,75.04
2016-04-22T00:39:31.372Z,75.23
2016-04-22T00:39:41.372Z,75.23
2016-04-22T00:39:51.388Z,75.32
2016-04-22T00:40:01.388Z,75.04
2016-04-22T00:40:11.388Z,75.04
2016-04-22T00:40:21.407Z,75.32
2016-04-22T00:40:31.407Z,75.32
2016-04-22T00:40:41.407Z,75.32
2016-04-22T00:40:51.407Z,75.32
2016-04-22T00:41:01.407Z,75.13
2016-04-22T00:41:11.422Z,75.23
2016-04-22T00:41:21.425Z,75.23
2016-04-22T00:41:31.425Z,75.32
2016-04-22T00:41:41.441Z,75.32
2016-04-22T00:41:51.441Z,75.23
2016-04-22T00:42:01.441Z,75.13
2016-04-22T00:42:11.457Z,75.7
2016-04-22T00:42:21.459Z,75.7
2016-04-22T00:42:31.490Z,75.42
2016-04-22T00:42:41.459Z,75.7
2016-04-22T00:42:51.459Z,75.6
2016-04-22T00:43:01.474Z,75.6
2016-04-22T00:43:11.474Z,75.23
2016-04-22T00:43:21.476Z,75.51
2016-04-22T00:43:31.492Z,75.51
2016-04-22T00:43:41.492Z,75.13
2016-04-22T00:43:51.507Z,75.13
2016-04-22T00:44:01.492Z,75.51
2016-04-22T00:44:11.507Z,75.23
2016-04-22T00:44:21.511Z,75.51
2016-04-22T00:44:31.511Z,75.6
2016-04-22T00:44:41.527Z,75.32
2016-04-22T00:44:51.527Z,75.23
2016-04-22T00:45:01.527Z,75.32
2016-04-22T00:45:11.527Z,75.51
2016-04-22T00:45:21.529Z,75.42
2016-04-22T00:45:31.545Z,75.42
2016-04-22T00:45:41.545Z,75.32
2016-04-22T00:45:51.560Z,75.6
2016-04-22T00:46:01.545Z,75.42
2016-04-22T00:46:11.560Z,75.51
2016-04-22T00:46:21.563Z,75.51
2016-04-22T00:46:31.563Z,75.51
2016-04-22T00:46:41.579Z,75.99
2016-04-22T00:46:51.579Z,75.99
2016-04-22T00:47:01.579Z,75.99
2016-04-22T00:47:11.579Z,75.89
2016-04-22T00:47:21.597Z,75.7
2016-04-22T00:47:31.597Z,75.89
2016-04-22T00:47:41.597Z,75.99
2016-04-22T00:47:51.597Z,75.7
2016-04-22T00:48:01.612Z,75.7
2016-04-22T00:48:11.612Z,75.51
2016-04-22T00:48:21.615Z,75.51
2016-04-22T00:48:31.615Z,76.08
2016-04-22T00:48:41.631Z,76.37
2016-04-22T00:48:51.631Z,76.27
2016-04-22T00:49:01.631Z,75.79
2016-04-22T00:49:11.646Z,76.08
2016-04-22T00:49:21.648Z,76.27
2016-04-22T00:49:31.648Z,76.37
2016-04-22T00:49:41.648Z,76.08
2016-04-22T00:49:51.664Z,75.89
2016-04-22T00:50:01.664Z,76.08
2016-04-22T00:50:11.664Z,76.08
2016-04-22T00:50:21.668Z,75.99
2016-04-22T00:50:31.684Z,75.99
2016-04-22T00:50:41.684Z,76.18
2016-04-22T00:50:51.684Z,75.89
2016-04-22T00:51:01.684Z,75.99
2016-04-22T00:51:11.699Z,76.18
2016-04-22T00:51:21.701Z,76.27
2016-04-22T00:51:31.701Z,75.99
2016-04-22T00:51:41.701Z,76.46
2016-04-22T00:51:51.717Z,76.18
2016-04-22T00:52:01.717Z,76.27
2016-04-22T00:52:11.717Z,76.27
2016-04-22T00:52:21.736Z,76.37
2016-04-22T00:52:31.736Z,76.37
2016-04-22T00:52:41.736Z,76.46
2016-04-22T00:52:51.736Z,76.56
2016-04-22T00:53:01.736Z,76.37
2016-04-22T00:53:11.751Z,76.46
2016-04-22T00:53:21.754Z,76.75
2016-04-22T00:53:31.754Z,76.75
2016-04-22T00:53:41.754Z,76.75
2016-04-22T00:53:51.770Z,76.75
2016-04-22T00:54:01.770Z,76.75
2016-04-22T00:54:11.770Z,76.65
2016-04-22T00:54:21.788Z,76.37
2016-04-22T00:54:31.788Z,76.65
2016-04-22T00:54:41.788Z,76.46
2016-04-22T00:54:51.804Z,76.56
2016-04-22T00:55:01.804Z,76.46
2016-04-22T00:55:11.804Z,76.65
2016-04-22T00:55:21.806Z,76.56
2016-04-22T00:55:31.806Z,76.65
2016-04-22T00:55:41.822Z,76.65
2016-04-22T00:55:51.822Z,76.46
2016-04-22T00:56:01.822Z,76.46
2016-04-22T00:56:11.837Z,76.56
2016-04-22T00:56:21.839Z,76.84
2016-04-22T00:56:31.839Z,76.56
2016-04-22T00:56:41.855Z,76.56
2016-04-22T00:56:51.839Z,76.46
2016-04-22T00:57:01.855Z,76.56
2016-04-22T00:57:11.855Z,76.84
2016-04-22T00:57:21.858Z,76.93
2016-04-22T00:57:31.733Z,77.22
2016-04-22T00:57:41.874Z,77.31
2016-04-22T00:57:51.874Z,77.22
2016-04-22T00:58:01.717Z,77.41
2016-04-22T00:58:11.889Z,77.03
2016-04-22T00:58:21.892Z,77.12
2016-04-22T00:58:31.892Z,77.03
2016-04-22T00:58:41.892Z,77.22
2016-04-22T00:58:51.908Z,77.12
2016-04-22T00:59:01.908Z,77.03
2016-04-22T00:59:11.908Z,77.12
2016-04-22T00:59:21.926Z,77.22
2016-04-22T00:59:31.926Z,77.22
2016-04-22T00:59:41.942Z,77.03
2016-04-22T00:59:51.942Z,77.03
2016-04-22T01:00:01.942Z,77.51
2016-04-22T01:00:11.942Z,77.51
2016-04-22T01:00:21.944Z,77.22
2016-04-22T01:00:31.960Z,77.51
2016-04-22T01:00:41.960Z,77.22
2016-04-22T01:00:51.960Z,77.6
2016-04-22T01:01:01.975Z,77.22
2016-04-22T01:01:11.960Z,77.51
2016-04-22T01:01:21.978Z,77.79
2016-04-22T01:01:31.978Z,77.6
2016-04-22T01:01:41.978Z,77.41
2016-04-22T01:01:51.994Z,77.22
2016-04-22T01:02:01.994Z,77.31
2016-04-22T01:02:11.994Z,77.41
2016-04-22T01:02:21.996Z,77.31
2016-04-22T01:02:31.996Z,77.41
2016-04-22T01:02:41.996Z,77.31
2016-04-22T01:02:52.012Z,77.7
2016-04-22T01:03:02.012Z,77.7
2016-04-22T01:03:12.012Z,77.6
2016-04-22T01:03:22.030Z,77.6
2016-04-22T01:03:32.030Z,77.7
2016-04-22T01:03:42.030Z,77.7
2016-04-22T01:03:52.046Z,77.7
2016-04-22T01:04:02.046Z,77.51
2016-04-22T01:04:12.061Z,77.79
2016-04-22T01:04:22.049Z,77.7
2016-04-22T01:04:32.049Z,77.75
2016-04-22T01:04:42.064Z,77.98
2016-04-22T01:04:52.064Z,77.98
2016-04-22T01:05:02.080Z,77.7
2016-04-22T01:05:12.080Z,77.98
2016-04-22T01:05:22.083Z,78.17
2016-04-22T01:05:32.083Z,77.98
2016-04-22T01:05:42.083Z,78.23
2016-04-22T01:05:52.099Z,78.17
2016-04-22T01:06:02.099Z,78.17
2016-04-22T01:06:12.099Z,77.98
2016-04-22T01:06:22.101Z,78.08
2016-04-22T01:06:32.116Z,78.08
2016-04-22T01:06:42.116Z,78.27
2016-04-22T01:06:52.116Z,77.79
2016-04-22T01:07:02.132Z,77.79
2016-04-22T01:07:12.132Z,78.17
2016-04-22T01:07:22.135Z,78.27
2016-04-22T01:07:32.135Z,78.61
2016-04-22T01:07:42.151Z,78.51
2016-04-22T01:07:52.151Z,78.36
2016-04-22T01:08:02.151Z,78.55
2016-04-22T01:08:12.151Z,78.45
2016-04-22T01:08:22.169Z,78.64
2016-04-22T01:08:32.169Z,78.45
2016-04-22T01:08:42.169Z,78.64
2016-04-22T01:08:52.169Z,78.55
2016-04-22T01:09:02.185Z,78.45
2016-04-22T01:09:12.185Z,78.55
2016-04-22T01:09:22.187Z,78.36
2016-04-22T01:09:32.187Z,78.55
2016-04-22T01:09:42.202Z,78.45
2016-04-22T01:09:52.202Z,78.74
2016-04-22T01:10:02.202Z,78.64
2016-04-22T01:10:12.202Z,78.74
2016-04-22T01:10:22.221Z,78.51
2016-04-22T01:10:32.221Z,78.55
2016-04-22T01:10:42.221Z,78.74
2016-04-22T01:10:52.237Z,78.45
2016-04-22T01:11:02.237Z,78.42
2016-04-22T01:11:12.237Z,78.55
2016-04-22T01:11:22.240Z,78.55
2016-04-22T01:11:32.255Z,78.36
2016-04-22T01:11:42.255Z,78.45
2016-04-22T01:11:52.255Z,78.42
2016-04-22T01:12:02.255Z,78.55
2016-04-22T01:12:12.271Z,79.12
2016-04-22T01:12:22.274Z,78.55
2016-04-22T01:12:32.305Z,78.89
2016-04-22T01:12:42.274Z,79.08
2016-04-22T01:12:52.290Z,78.83
2016-04-22T01:13:02.290Z,78.8
2016-04-22T01:13:12.290Z,78.8
2016-04-22T01:13:22.292Z,78.89
2016-04-22T01:13:32.307Z,78.7
2016-04-22T01:13:42.307Z,78.7
2016-04-22T01:13:52.307Z,78.7
2016-04-22T01:14:02.307Z,78.93
2016-04-22T01:14:12.323Z,78.7
2016-04-22T01:14:22.326Z,78.64
2016-04-22T01:14:32.326Z,78.51
2016-04-22T01:14:42.326Z,78.64
2016-04-22T01:14:52.326Z,78.61
2016-04-22T01:15:02.341Z,78.93
2016-04-22T01:15:12.341Z,78.64
2016-04-22T01:15:21.610Z,78.61
2016-04-22T01:15:32.360Z,78.74
2016-04-22T01:15:42.360Z,78.61
2016-04-22T01:15:52.376Z,78.7
2016-04-22T01:16:02.376Z,78.74
2016-04-22T01:16:12.376Z,78.61
2016-04-22T01:16:22.378Z,78.8
2016-04-22T01:16:32.378Z,78.99
2016-04-22T01:16:42.378Z,78.61
2016-04-22T01:16:52.393Z,78.8
2016-04-22T01:17:02.393Z,78.8
2016-04-22T01:17:12.393Z,78.89
2016-04-22T01:17:22.412Z,78.89
2016-04-22T01:17:32.412Z,78.89
2016-04-22T01:17:42.412Z,79.08
2016-04-22T01:17:52.412Z,79.17
2016-04-22T01:18:02.428Z,79.17
2016-04-22T01:18:12.428Z,78.61
2016-04-22T01:18:22.446Z,78.8
2016-04-22T01:18:32.431Z,78.8
2016-04-22T01:18:42.446Z,78.89
2016-04-22T01:18:52.446Z,78.8
2016-04-22T01:19:02.446Z,79.17
2016-04-22T01:19:12.446Z,79.17
2016-04-22T01:19:22.464Z,78.89
2016-04-22T01:19:32.464Z,78.7
2016-04-22T01:19:42.464Z,78.99
2016-04-22T01:19:52.464Z,78.51
2016-04-22T01:20:02.479Z,78.61
2016-04-22T01:20:12.479Z,79.08
2016-04-22T01:20:22.482Z,79.17
2016-04-22T01:20:32.498Z,78.7
2016-04-22T01:20:42.498Z,79.17
2016-04-22T01:20:52.498Z,79.08
2016-04-22T01:21:02.498Z,79.17
2016-04-22T01:21:12.514Z,79.27
2016-04-22T01:21:22.517Z,79.08
2016-04-22T01:21:32.517Z,79.46
2016-04-22T01:21:42.517Z,79.17
2016-04-22T01:21:52.517Z,79.27
2016-04-22T01:22:02.532Z,79.27
2016-04-22T01:22:12.532Z,79.46
2016-04-22T01:22:22.535Z,79.46
2016-04-22T01:22:32.551Z,79.17
2016-04-22T01:22:42.551Z,79.17
2016-04-22T01:22:52.551Z,79.27
2016-04-22T01:23:02.395Z,79.27
2016-04-22T01:23:12.567Z,79.17
2016-04-22T01:23:22.569Z,79.17
2016-04-22T01:23:32.569Z,79.17
2016-04-22T01:23:42.569Z,79.08
2016-04-22T01:23:52.584Z,79.08
2016-04-22T01:24:02.584Z,78.89
2016-04-22T01:24:12.584Z,78.99
2016-04-22T01:24:22.603Z,79.17
2016-04-22T01:24:32.603Z,78.99
2016-04-22T01:24:42.603Z,78.99
2016-04-22T01:24:52.618Z,78.89
2016-04-22T01:25:02.603Z,79.17
2016-04-22T01:25:12.618Z,78.99
2016-04-22T01:25:22.621Z,78.89
2016-04-22T01:25:32.621Z,78.89
2016-04-22T01:25:42.637Z,78.89
2016-04-22T01:25:52.637Z,79.08
2016-04-22T01:26:02.637Z,79.08
2016-04-22T01:26:12.637Z,78.99
2016-04-22T01:26:22.655Z,78.89
2016-04-22T01:26:32.655Z,79.08
2016-04-22T01:26:42.655Z,79.08
2016-04-22T01:26:52.655Z,78.8
2016-04-22T01:27:02.670Z,79.08
2016-04-22T01:27:12.670Z,79.36
2016-04-22T01:27:22.673Z,79.27
2016-04-22T01:27:32.673Z,79.46
2016-04-22T01:27:42.689Z,79.27
2016-04-22T01:27:52.689Z,79.17
2016-04-22T01:28:02.689Z,79.27
2016-04-22T01:28:12.689Z,79.27
2016-04-22T01:28:22.708Z,79.36
2016-04-22T01:28:32.708Z,79.27
2016-04-22T01:28:42.708Z,79.46
2016-04-22T01:28:52.723Z,79.36
2016-04-22T01:29:02.723Z,79.27
2016-04-22T01:29:12.739Z,79.36
2016-04-22T01:29:22.725Z,78.99
2016-04-22T01:29:32.725Z,79.17
2016-04-22T01:29:42.741Z,78.99
2016-04-22T01:29:52.741Z,79.08
2016-04-22T01:30:02.741Z,79.17
2016-04-22T01:30:12.741Z,79.27
2016-04-22T01:30:22.759Z,79.46
2016-04-22T01:30:32.759Z,79.08
2016-04-22T01:30:42.759Z,79.17
2016-04-22T01:30:52.775Z,79.36
2016-04-22T01:31:02.775Z,79.17
2016-04-22T01:31:12.775Z,79.74
2016-04-22T01:31:22.794Z,79.17
2016-04-22T01:31:32.794Z,79.74
2016-04-22T01:31:42.794Z,79.55
2016-04-22T01:31:52.794Z,79.46
2016-04-22T01:32:02.794Z,79.46
2016-04-22T01:32:12.809Z,79.55
2016-04-22T01:32:22.811Z,79.65
2016-04-22T01:32:32.811Z,79.46
2016-04-22T01:32:42.827Z,79.27
2016-04-22T01:32:52.827Z,79.36
2016-04-22T01:33:02.061Z,79.36
2016-04-22T01:33:12.843Z,79.46
2016-04-22T01:33:22.846Z,79.65
2016-04-22T01:33:32.846Z,79.65
2016-04-22T01:33:42.846Z,79.46
2016-04-22T01:33:52.846Z,79.46
2016-04-22T01:34:02.861Z,79.46
2016-04-22T01:34:12.846Z,79.65
2016-04-22T01:34:22.864Z,79.17
2016-04-22T01:34:32.864Z,79.65
2016-04-22T01:34:42.880Z,79.17
2016-04-22T01:34:52.880Z,79.55
2016-04-22T01:35:02.880Z,79.55
2016-04-22T01:35:12.880Z,79.46
2016-04-22T01:35:22.898Z,79.55
2016-04-22T01:35:32.898Z,79.46
2016-04-22T01:35:42.898Z,79.46
2016-04-22T01:35:52.898Z,79.46
2016-04-22T01:36:02.898Z,79.17
2016-04-22T01:36:12.914Z,79.46
2016-04-22T01:36:22.916Z,79.65
2016-04-22T01:36:32.932Z,79.65
2016-04-22T01:36:42.932Z,79.46
2016-04-22T01:36:52.932Z,79.46
2016-04-22T01:37:02.932Z,79.46
2016-04-22T01:37:12.947Z,79.65
2016-04-22T01:37:22.950Z,79.46
2016-04-22T01:37:32.950Z,79.65
2016-04-22T01:37:42.950Z,79.46
2016-04-22T01:37:52.966Z,79.65
2016-04-22T01:38:02.966Z,79.46
2016-04-22T01:38:12.966Z,79.36
2016-04-22T01:38:22.969Z,79.46
2016-04-22T01:38:32.985Z,79.46
2016-04-22T01:38:42.985Z,79.65
2016-04-22T01:38:52.985Z,79.55
2016-04-22T01:39:02.985Z,79.46
2016-04-22T01:39:12.844Z,79.46
2016-04-22T01:39:23.002Z,79.17
2016-04-22T01:39:33.002Z,79.65
2016-04-22T01:39:43.002Z,79.46
2016-04-22T01:39:53.018Z,79.46
2016-04-22T01:40:03.018Z,79.27
2016-04-22T01:40:13.018Z,79.55
2016-04-22T01:40:23.036Z,79.65
2016-04-22T01:40:33.036Z,79.74
2016-04-22T01:40:43.036Z,79.55
2016-04-22T01:40:53.036Z,79.46
2016-04-22T01:41:03.036Z,79.55
2016-04-22T01:41:13.052Z,79.55
2016-04-22T01:41:23.055Z,79.55
2016-04-22T01:41:33.055Z,79.65
2016-04-22T01:41:43.071Z,79.65
2016-04-22T01:41:53.071Z,79.55
2016-04-22T01:42:03.071Z,79.55
2016-04-22T01:42:13.071Z,79.74
2016-04-22T01:42:23.089Z,79.94
2016-04-22T01:42:33.089Z,79.94
2016-04-22T01:42:42.949Z,79.94
2016-04-22T01:42:53.089Z,79.84
2016-04-22T01:43:03.089Z,79.94
2016-04-22T01:43:13.105Z,80.03
2016-04-22T01:43:23.107Z,79.84
2016-04-22T01:43:33.107Z,79.94
2016-04-22T01:43:43.107Z,79.84
2016-04-22T01:43:53.123Z,79.94
2016-04-22T01:44:03.123Z,79.94
2016-04-22T01:44:13.123Z,79.84
2016-04-22T01:44:23.141Z,79.94
2016-04-22T01:44:33.141Z,79.74
2016-04-22T01:44:43.141Z,80.32
2016-04-22T01:44:53.141Z,80.03
2016-04-22T01:45:03.157Z,80.03
2016-04-22T01:45:13.157Z,80.32
2016-04-22T01:45:23.174Z,80.32
2016-04-22T01:45:33.159Z,80.13
2016-04-22T01:45:43.174Z,79.94
2016-04-22T01:45:53.174Z,80.41
2016-04-22T01:46:03.174Z,79.74
2016-04-22T01:46:13.190Z,80.22
2016-04-22T01:46:23.193Z,80.03
2016-04-22T01:46:33.193Z,80.69
2016-04-22T01:46:43.193Z,79.94
2016-04-22T01:46:53.193Z,80.13
2016-04-22T01:47:03.209Z,80.6
2016-04-22T01:47:13.209Z,79.94
2016-04-22T01:47:23.212Z,80.13
2016-04-22T01:47:33.212Z,80.03
2016-04-22T01:47:43.227Z,80.03
2016-04-22T01:47:53.227Z,80.22
2016-04-22T01:48:03.227Z,79.94
2016-04-22T01:48:13.243Z,80.03
2016-04-22T01:48:23.246Z,80.03
2016-04-22T01:48:33.246Z,80.03
2016-04-22T01:48:43.246Z,80.69
2016-04-22T01:48:53.262Z,80.41
2016-04-22T01:49:03.262Z,80.41
2016-04-22T01:49:13.262Z,80.22
2016-04-22T01:49:23.264Z,80.41
2016-04-22T01:49:33.264Z,80.32
2016-04-22T01:49:43.279Z,80.41
2016-04-22T01:49:53.279Z,80.32
2016-04-22T01:50:03.295Z,80.13
2016-04-22T01:50:13.295Z,80.13
2016-04-22T01:50:23.298Z,80.03
2016-04-22T01:50:33.298Z,80.03
2016-04-22T01:50:43.313Z,80.03
2016-04-22T01:50:53.313Z,79.94
2016-04-22T01:51:03.313Z,80.13
2016-04-22T01:51:13.157Z,80.13
2016-04-22T01:51:23.332Z,80.6
2016-04-22T01:51:33.332Z,80.41
2016-04-22T01:51:43.332Z,80.32
2016-04-22T01:51:53.348Z,80.32
2016-04-22T01:52:03.332Z,80.32
2016-04-22T01:52:13.348Z,80.51
2016-04-22T01:52:23.350Z,80.69
2016-04-22T01:52:33.350Z,80.51
2016-04-22T01:52:43.350Z,80.41
2016-04-22T01:52:53.365Z,80.13
2016-04-22T01:53:03.365Z,80.41
2016-04-22T01:53:13.365Z,80.79
2016-04-22T01:53:23.368Z,80.79
2016-04-22T01:53:33.384Z,81.07
2016-04-22T01:53:43.384Z,80.79
2016-04-22T01:53:53.384Z,80.98
2016-04-22T01:54:03.400Z,80.98
2016-04-22T01:54:13.400Z,81.07
2016-04-22T01:54:23.403Z,80.79
2016-04-22T01:54:33.403Z,80.6
2016-04-22T01:54:43.418Z,80.69
2016-04-22T01:54:53.418Z,80.69
2016-04-22T01:55:03.418Z,80.79
2016-04-22T01:55:13.418Z,81.45
2016-04-22T01:55:23.437Z,81.17
2016-04-22T01:55:33.437Z,81.36
2016-04-22T01:55:43.437Z,81.26
2016-04-22T01:55:53.452Z,81.26
2016-04-22T01:56:03.452Z,81.17
2016-04-22T01:56:13.452Z,81.07
2016-04-22T01:56:23.454Z,81.07
2016-04-22T01:56:33.470Z,80.88
2016-04-22T01:56:43.470Z,81.07
2016-04-22T01:56:53.470Z,81.07
2016-04-22T01:57:03.470Z,81.07
2016-04-22T01:57:13.470Z,81.17
2016-04-22T01:57:23.489Z,81.55
2016-04-22T01:57:33.489Z,81.45
2016-04-22T01:57:43.520Z,81.55
2016-04-22T01:57:53.504Z,81.26
2016-04-22T01:58:03.504Z,81.26
2016-04-22T01:58:13.504Z,81.36
2016-04-22T01:58:23.506Z,81.45
2016-04-22T01:58:33.522Z,81.74
2016-04-22T01:58:43.522Z,81.74
2016-04-22T01:58:53.522Z,81.84
2016-04-22T01:59:03.522Z,81.93
2016-04-22T01:59:13.538Z,81.93
2016-04-22T01:59:23.541Z,81.55
2016-04-22T01:59:33.541Z,81.45
2016-04-22T01:59:43.541Z,81.65
2016-04-22T01:59:53.556Z,81.55
2016-04-22T02:00:03.572Z,81.65
2016-04-22T02:00:13.572Z,81.36
2016-04-22T02:00:23.575Z,81.45
2016-04-22T02:00:33.575Z,81.45
2016-04-22T02:00:43.575Z,81.55
2016-04-22T02:00:53.575Z,81.45
2016-04-22T02:01:03.575Z,81.55
2016-04-22T02:01:13.606Z,81.74
2016-04-22T02:01:23.609Z,81.74
2016-04-22T02:01:33.593Z,81.74
2016-04-22T02:01:43.593Z,81.74
2016-04-22T02:01:53.609Z,81.74
2016-04-22T02:02:03.609Z,81.55
2016-04-22T02:02:13.609Z,81.65
2016-04-22T02:02:23.627Z,81.65
2016-04-22T02:02:33.627Z,81.55
2016-04-22T02:02:43.627Z,81.55
2016-04-22T02:02:53.627Z,81.93
2016-04-22T02:03:03.627Z,81.74
2016-04-22T02:03:13.642Z,81.74
2016-04-22T02:03:23.645Z,81.74
2016-04-22T02:03:33.645Z,81.84
2016-04-22T02:03:43.645Z,82.21
2016-04-22T02:03:53.661Z,81.93
2016-04-22T02:04:03.661Z,82.21
2016-04-22T02:04:13.661Z,82.31
2016-04-22T02:04:23.680Z,82.12
2016-04-22T02:04:33.680Z,82.03
2016-04-22T02:04:43.680Z,82.31
2016-04-22T02:04:53.680Z,82.12
2016-04-22T02:05:03.680Z,82.31
2016-04-22T02:05:13.695Z,82.12
2016-04-22T02:05:23.697Z,82.12
2016-04-22T02:05:33.713Z,82.12
2016-04-22T02:05:43.713Z,82.03
2016-04-22T02:05:53.713Z,82.03
2016-04-22T02:06:03.713Z,82.31
2016-04-22T02:06:13.713Z,82.12
2016-04-22T02:06:23.731Z,81.84
2016-04-22T02:06:33.731Z,82.12
2016-04-22T02:06:43.731Z,81.93
2016-04-22T02:06:53.731Z,81.93
2016-04-22T02:07:03.747Z,82.12
2016-04-22T02:07:13.747Z,81.84
2016-04-22T02:07:23.000Z,81.93
2016-04-22T02:07:33.766Z,81.93
2016-04-22T02:07:43.766Z,82.12
2016-04-22T02:07:53.766Z,82.21
2016-04-22T02:08:03.766Z,82.4
2016-04-22T02:08:13.781Z,82.31
2016-04-22T02:08:23.784Z,82.78
2016-04-22T02:08:33.800Z,82.21
2016-04-22T02:08:43.800Z,82.69
2016-04-22T02:08:53.800Z,82.69
2016-04-22T02:09:03.800Z,82.59